createdAt,value
2019-02-14T00:01:52.668Z,24.75
2019-02-14T00:04:21.007Z,25.43
2019-02-14T00:06:49.409Z,21.48
2019-02-14T00:09:17.803Z,24.35
2019-02-14T00:11:46.466Z,23.85
2019-02-14T00:14:15.347Z,28.05
2019-02-14T00:16:43.740Z,23.30
2019-02-14T00:19:12.131Z,24.87
2019-02-14T00:21:41.079Z,20.23
2019-02-14T00:24:09.476Z,28.50
2019-02-14T00:26:37.851Z,24.23
2019-02-14T00:29:06.974Z,23.30
2019-02-14T00:31:35.375Z,25.68
2019-02-14T00:34:03.747Z,18.80
2019-02-14T00:36:32.132Z,18.95
2019-02-14T00:39:00.817Z,26.68
2019-02-14T00:41:29.768Z,17.80
2019-02-14T00:43:59.563Z,21.82
2019-02-14T00:46:28.101Z,27.67
2019-02-14T00:48:57.137Z,20.88
2019-02-14T00:51:26.695Z,31.30
2019-02-14T00:53:55.124Z,25.48
2019-02-14T00:56:23.514Z,27.10
2019-02-14T00:58:51.909Z,22.13
2019-02-14T01:01:21.167Z,24.67
2019-02-14T01:03:50.864Z,21.07
2019-02-14T01:06:19.944Z,27.70
2019-02-14T01:08:48.616Z,23.45
2019-02-14T01:11:17.048Z,21.85
2019-02-14T01:13:45.408Z,22.32
2019-02-14T01:16:14.156Z,20.65
2019-02-14T01:18:42.624Z,21.42
2019-02-14T01:21:11.082Z,20.43
2019-02-14T01:23:39.478Z,21.33
2019-02-14T01:26:07.857Z,20.08
2019-02-14T01:28:36.211Z,25.45
2019-02-14T01:31:04.632Z,20.80
2019-02-14T01:33:33.004Z,25.08
2019-02-14T01:36:02.912Z,19.75
2019-02-14T01:38:32.324Z,19.30
2019-02-14T01:41:00.713Z,17.65
2019-02-14T01:43:29.108Z,25.48
2019-02-14T01:45:59.096Z,19.92
2019-02-14T01:48:27.475Z,20.68
2019-02-14T01:50:55.868Z,18.82
2019-02-14T01:53:24.902Z,19.57
2019-02-14T01:55:53.900Z,18.67
2019-02-14T01:58:22.270Z,21.12
2019-02-14T02:00:50.673Z,20.85
2019-02-14T02:03:19.376Z,23.98
2019-02-14T02:05:50.785Z,23.15
2019-02-14T02:08:19.376Z,23.83
2019-02-14T02:10:47.799Z,20.37
2019-02-14T02:13:16.188Z,21.15
2019-02-14T02:15:45.464Z,24.23
2019-02-14T02:18:14.865Z,22.82
2019-02-14T02:20:43.907Z,23.60
2019-02-14T02:23:12.362Z,20.57
2019-02-14T02:25:40.975Z,18.70
2019-02-14T02:28:10.035Z,20.00
2019-02-14T02:30:38.441Z,15.63
2019-02-14T02:33:06.820Z,26.40
2019-02-14T02:35:35.211Z,19.80
2019-02-14T02:38:08.055Z,18.20
2019-02-14T02:40:36.716Z,21.50
2019-02-14T02:43:05.757Z,18.77
2019-02-14T02:45:34.171Z,22.40
2019-02-14T02:48:03.213Z,19.98
2019-02-14T02:50:31.607Z,15.88
2019-02-14T02:53:01.535Z,23.83
2019-02-14T02:55:29.917Z,18.75
2019-02-14T02:57:58.320Z,16.65
2019-02-14T03:00:26.718Z,21.17
2019-02-14T03:02:55.089Z,17.67
2019-02-14T03:05:23.768Z,21.57
2019-02-14T03:07:53.172Z,22.40
2019-02-14T03:10:21.855Z,21.57
2019-02-14T03:12:50.543Z,18.48
2019-02-14T03:15:18.918Z,26.90
2019-02-14T03:17:47.963Z,22.48
2019-02-14T03:20:16.363Z,21.02
2019-02-14T03:22:44.741Z,20.40
2019-02-14T03:25:38.035Z,26.15
2019-02-14T03:28:06.421Z,23.80
2019-02-14T03:30:34.855Z,24.20
2019-02-14T03:33:03.925Z,20.85
2019-02-14T03:35:32.292Z,20.97
2019-02-14T03:38:01.231Z,24.35
2019-02-14T03:40:29.630Z,26.87
2019-02-14T03:43:02.522Z,25.23
2019-02-14T03:45:30.929Z,24.82
2019-02-14T03:47:59.571Z,31.27
2019-02-14T03:50:29.316Z,23.18
2019-02-14T03:52:57.692Z,26.80
2019-02-14T03:55:26.050Z,28.55
2019-02-14T03:57:55.022Z,30.62
2019-02-14T04:00:24.327Z,26.20
2019-02-14T04:02:52.695Z,20.23
2019-02-14T04:05:21.093Z,20.15
2019-02-14T04:07:52.162Z,25.95
2019-02-14T04:10:21.420Z,21.30
2019-02-14T04:12:49.815Z,21.93
2019-02-14T04:15:18.650Z,20.05
2019-02-14T04:17:47.048Z,25.40
2019-02-14T04:20:15.428Z,25.72
2019-02-14T04:22:44.626Z,27.73
2019-02-14T04:25:13.328Z,26.40
2019-02-14T04:27:43.356Z,25.12
2019-02-14T04:30:13.070Z,29.77
2019-02-14T04:32:41.456Z,27.67
2019-02-14T04:35:09.849Z,22.87
2019-02-14T04:37:38.226Z,30.75
2019-02-14T04:40:33.386Z,24.80
2019-02-14T04:43:19.022Z,22.07
2019-02-14T04:45:47.484Z,18.25
2019-02-14T04:48:16.588Z,21.90
2019-02-14T04:50:44.987Z,22.15
2019-02-14T04:53:13.367Z,23.65
2019-02-14T04:55:41.986Z,26.57
2019-02-14T04:58:10.951Z,24.82
2019-02-14T05:00:39.770Z,22.02
2019-02-14T05:03:08.145Z,26.20
2019-02-14T05:05:38.057Z,23.98
2019-02-14T05:08:07.097Z,31.42
2019-02-14T05:10:36.387Z,25.72
2019-02-14T05:13:04.778Z,24.35
2019-02-14T05:15:33.721Z,26.35
2019-02-14T05:18:02.667Z,21.62
2019-02-14T05:20:31.057Z,25.43
2019-02-14T05:22:59.437Z,25.30
2019-02-14T05:25:27.835Z,22.85
2019-02-14T05:27:56.218Z,17.98
2019-02-14T05:30:24.909Z,18.98
2019-02-14T05:32:53.283Z,21.95
2019-02-14T05:35:22.728Z,24.25
2019-02-14T05:37:51.103Z,20.52
2019-02-14T05:40:19.525Z,23.60
2019-02-14T05:42:47.942Z,21.80
2019-02-14T05:45:17.099Z,20.68
2019-02-14T05:47:45.803Z,23.83
2019-02-14T05:50:14.843Z,24.37
2019-02-14T05:52:43.910Z,25.05
2019-02-14T05:55:15.439Z,25.25
2019-02-14T05:57:45.379Z,31.15
2019-02-14T06:00:15.656Z,26.95
2019-02-14T06:02:44.060Z,21.73
2019-02-14T06:05:12.743Z,20.62
2019-02-14T06:07:41.130Z,23.87
2019-02-14T06:10:11.067Z,18.00
2019-02-14T06:12:39.440Z,26.05
2019-02-14T06:15:10.430Z,26.05
2019-02-14T06:17:38.865Z,21.37
2019-02-14T06:20:11.358Z,22.50
2019-02-14T06:22:40.383Z,24.67
2019-02-14T06:25:10.730Z,17.98
2019-02-14T06:27:39.110Z,25.43
2019-02-14T06:30:29.727Z,24.30
2019-02-14T06:32:58.091Z,24.80
2019-02-14T06:35:26.462Z,33.70
2019-02-14T06:37:54.859Z,22.10
2019-02-14T06:40:24.487Z,28.70
2019-02-14T06:42:52.871Z,22.98
2019-02-14T06:45:21.283Z,23.25
2019-02-14T06:47:50.326Z,27.10
2019-02-14T06:50:18.711Z,25.82
2019-02-14T06:52:49.500Z,27.13
2019-02-14T06:55:17.875Z,22.87
2019-02-14T06:57:46.644Z,21.33
2019-02-14T07:00:17.031Z,19.62
2019-02-14T07:02:45.487Z,35.33
2019-02-14T07:05:14.260Z,25.62
2019-02-14T07:07:42.626Z,23.77
2019-02-14T07:10:12.079Z,21.02
2019-02-14T07:12:41.203Z,23.10
2019-02-14T07:15:12.360Z,27.48
2019-02-14T07:17:40.778Z,24.32
2019-02-14T07:20:12.227Z,24.75
2019-02-14T07:22:41.159Z,22.37
2019-02-14T07:25:11.375Z,15.85
2019-02-14T07:27:40.421Z,26.75
2019-02-14T07:30:17.566Z,17.95
2019-02-14T07:32:47.114Z,19.98
2019-02-14T07:35:15.691Z,19.55
2019-02-14T07:37:44.162Z,20.02
2019-02-14T07:40:14.258Z,17.00
2019-02-14T07:42:43.335Z,21.95
2019-02-14T07:45:13.930Z,18.17
2019-02-14T07:47:42.302Z,16.45
2019-02-14T07:55:58.644Z,22.35
2019-02-14T07:58:28.922Z,14.80
2019-02-14T08:01:02.528Z,21.12
2019-02-14T08:06:25.978Z,21.42
2019-02-14T08:08:56.053Z,17.35
2019-02-14T08:11:26.883Z,18.73
2019-02-14T08:14:01.559Z,22.02
2019-02-14T08:16:38.583Z,17.20
2019-02-14T08:19:09.386Z,18.95
2019-02-14T08:24:37.019Z,14.73
2019-02-14T08:27:05.401Z,14.25
2019-02-14T08:29:33.760Z,12.98
2019-02-14T08:32:02.686Z,13.98
2019-02-14T08:34:31.080Z,17.20
2019-02-14T08:36:59.430Z,18.25
2019-02-14T08:39:29.462Z,16.50
2019-02-14T08:41:57.747Z,15.25
2019-02-14T08:44:26.121Z,15.10
2019-02-14T08:46:55.313Z,19.23
2019-02-14T08:49:24.141Z,14.93
2019-02-14T08:51:52.499Z,16.32
2019-02-14T08:54:21.582Z,12.18
2019-02-14T08:56:49.934Z,15.28
2019-02-14T08:59:18.289Z,18.40
2019-02-14T09:01:46.688Z,13.13
2019-02-14T09:04:15.061Z,17.82
2019-02-14T09:06:43.411Z,16.50
2019-02-14T09:09:12.575Z,13.85
2019-02-14T09:11:41.510Z,14.23
2019-02-14T09:14:09.897Z,12.93
2019-02-14T09:16:38.254Z,15.75
2019-02-14T09:19:07.296Z,16.65
2019-02-14T09:21:35.701Z,24.65
2019-02-14T09:24:04.069Z,14.53
2019-02-14T09:26:33.012Z,13.58
2019-02-14T09:29:01.370Z,16.27
2019-02-14T09:31:33.231Z,19.77
2019-02-14T09:34:02.389Z,17.12
2019-02-14T09:36:30.751Z,15.75
2019-02-14T09:38:59.152Z,18.82
2019-02-14T09:41:27.857Z,12.07
2019-02-14T09:43:56.241Z,14.93
2019-02-14T09:46:24.621Z,12.93
2019-02-14T09:48:52.999Z,13.32
2019-02-14T09:51:21.396Z,14.70
2019-02-14T09:53:49.765Z,14.28
2019-02-14T09:56:18.126Z,23.83
2019-02-14T09:58:46.533Z,32.23
2019-02-14T10:01:14.890Z,17.35
2019-02-14T10:03:43.348Z,15.98
2019-02-14T10:06:11.809Z,15.98
2019-02-14T10:08:40.937Z,13.53
2019-02-14T10:11:09.725Z,15.20
2019-02-14T10:13:38.105Z,15.43
2019-02-14T10:16:06.485Z,16.07
2019-02-14T10:18:35.157Z,13.00
2019-02-14T10:21:03.546Z,14.78
2019-02-14T10:23:31.950Z,14.10
2019-02-14T10:26:00.347Z,14.07
2019-02-14T10:28:29.487Z,13.43
2019-02-14T10:30:58.172Z,13.00
2019-02-14T10:33:26.562Z,12.18
2019-02-14T10:35:54.922Z,18.82
2019-02-14T10:38:23.324Z,17.25
2019-02-14T10:40:51.987Z,16.87
2019-02-14T10:43:20.383Z,16.95
2019-02-14T10:45:49.975Z,15.93
2019-02-14T10:48:19.074Z,17.60
2019-02-14T10:50:47.475Z,17.07
2019-02-14T10:53:15.876Z,16.65
2019-02-14T10:55:44.267Z,16.57
2019-02-14T10:58:12.631Z,16.07
2019-02-14T11:00:41.076Z,17.98
2019-02-14T11:03:10.135Z,17.00
2019-02-14T11:05:38.506Z,14.33
2019-02-14T11:08:06.911Z,12.60
2019-02-14T11:10:35.360Z,13.43
2019-02-14T11:13:03.740Z,14.40
2019-02-14T11:15:32.967Z,20.43
2019-02-14T11:18:01.900Z,16.60
2019-02-14T11:20:31.264Z,19.20
2019-02-14T11:22:59.944Z,17.15
2019-02-14T11:25:31.906Z,20.37
2019-02-14T11:28:00.287Z,12.37
2019-02-14T11:30:28.919Z,17.37
2019-02-14T11:32:57.278Z,14.78
2019-02-14T11:35:25.679Z,20.90
2019-02-14T11:37:54.757Z,13.22
2019-02-14T11:40:43.568Z,12.47
2019-02-14T11:43:11.970Z,14.47
2019-02-14T11:45:40.437Z,15.30
2019-02-14T11:48:08.909Z,13.83
2019-02-14T11:50:37.294Z,22.42
2019-02-14T11:53:13.960Z,18.30
2019-02-14T11:55:35.750Z,14.33
2019-02-14T11:58:04.582Z,15.93
2019-02-14T12:00:32.994Z,13.28
2019-02-14T12:03:01.380Z,12.63
2019-02-14T12:05:29.797Z,13.83
2019-02-14T12:07:58.169Z,17.62
2019-02-14T12:10:26.527Z,12.98
2019-02-14T12:12:54.931Z,17.40
2019-02-14T12:15:23.663Z,16.75
2019-02-14T12:17:52.416Z,13.43
2019-02-14T12:20:20.773Z,13.53
2019-02-14T12:22:49.155Z,13.00
2019-02-14T12:25:29.508Z,17.85
2019-02-14T12:27:57.817Z,15.28
2019-02-14T12:30:26.591Z,13.00
2019-02-14T12:32:55.566Z,12.68
2019-02-14T12:35:24.268Z,16.42
2019-02-14T12:37:52.759Z,13.15
2019-02-14T12:40:21.235Z,14.43
2019-02-14T12:42:50.269Z,12.10
2019-02-14T12:45:42.655Z,11.30
2019-02-14T12:48:11.010Z,16.48
2019-02-14T12:50:39.389Z,15.75
2019-02-14T12:53:07.809Z,13.10
2019-02-14T12:55:36.623Z,13.95
2019-02-14T12:58:05.025Z,10.85
2019-02-14T13:00:34.436Z,11.20
2019-02-14T13:03:02.796Z,12.05
2019-02-14T13:08:37.804Z,15.70
2019-02-14T13:11:06.213Z,13.08
2019-02-14T13:13:35.252Z,14.63
2019-02-14T13:16:04.581Z,13.05
2019-02-14T13:18:33.058Z,12.82
2019-02-14T13:21:01.433Z,12.18
2019-02-14T13:23:29.827Z,10.20
2019-02-14T13:25:58.269Z,15.23
2019-02-14T13:28:26.667Z,11.25
2019-02-14T13:30:55.074Z,11.75
2019-02-14T13:33:23.459Z,13.68
2019-02-14T13:35:52.568Z,11.55
2019-02-14T13:38:20.980Z,13.98
2019-02-14T13:40:49.353Z,17.70
2019-02-14T13:43:18.386Z,10.90
2019-02-14T13:45:47.763Z,17.50
2019-02-14T13:48:16.142Z,13.83
2019-02-14T13:50:45.375Z,11.68
2019-02-14T13:53:13.795Z,16.57
2019-02-14T13:55:42.158Z,13.93
2019-02-14T13:58:10.528Z,11.68
2019-02-14T14:00:38.939Z,16.65
2019-02-14T14:03:07.308Z,14.35
2019-02-14T14:05:35.752Z,14.68
2019-02-14T14:08:04.088Z,10.65
2019-02-14T14:10:33.587Z,12.68
2019-02-14T14:13:03.248Z,12.35
2019-02-14T14:15:31.654Z,13.62
2019-02-14T14:18:00.801Z,11.97
2019-02-14T14:20:29.221Z,11.85
2019-02-14T14:22:58.372Z,14.07
2019-02-14T14:25:27.425Z,12.58
2019-02-14T14:27:55.856Z,11.48
2019-02-14T14:30:24.233Z,14.33
2019-02-14T14:32:52.682Z,12.10
2019-02-14T14:35:21.090Z,10.58
2019-02-14T14:37:49.839Z,10.05
2019-02-14T14:40:20.455Z,12.47
2019-02-14T14:42:51.621Z,8.78
2019-02-14T14:45:41.188Z,9.25
2019-02-14T14:48:19.208Z,10.55
2019-02-14T14:50:41.277Z,11.93
2019-02-14T14:53:09.691Z,12.95
2019-02-14T14:55:38.138Z,13.78
2019-02-14T14:58:07.174Z,10.93
2019-02-14T15:00:35.672Z,14.70
2019-02-14T15:03:04.007Z,9.60
2019-02-14T15:05:32.431Z,12.45
2019-02-14T15:08:00.838Z,12.00
2019-02-14T15:10:29.140Z,12.23
2019-02-14T15:12:57.528Z,10.53
2019-02-14T15:15:25.898Z,12.47
2019-02-14T15:17:54.276Z,13.35
2019-02-14T15:20:24.302Z,8.93
2019-02-14T15:22:52.681Z,12.43
2019-02-14T15:25:21.071Z,11.48
2019-02-14T15:27:50.269Z,15.72
2019-02-14T15:30:19.065Z,12.07
2019-02-14T15:32:48.965Z,11.50
2019-02-14T15:35:17.347Z,13.15
2019-02-14T15:37:47.142Z,14.23
2019-02-14T15:40:16.183Z,16.00
2019-02-14T15:42:44.542Z,10.63
2019-02-14T15:45:12.923Z,14.45
2019-02-14T15:47:41.322Z,15.25
2019-02-14T15:50:09.751Z,14.33
2019-02-14T15:52:38.177Z,14.30
2019-02-14T15:55:07.582Z,13.75
2019-02-14T15:57:35.961Z,13.10
2019-02-14T16:00:10.253Z,10.40
2019-02-14T16:02:36.870Z,10.60
2019-02-14T16:05:06.401Z,12.10
2019-02-14T16:07:36.839Z,14.75
2019-02-14T16:10:17.622Z,12.93
2019-02-14T16:12:41.071Z,10.82
2019-02-14T16:15:09.730Z,13.32
2019-02-14T16:17:38.183Z,13.10
2019-02-14T16:20:10.149Z,12.28
2019-02-14T16:22:40.232Z,15.58
2019-02-14T16:28:11.651Z,14.25
2019-02-14T16:30:40.961Z,13.00
2019-02-14T16:33:09.391Z,14.38
2019-02-14T16:35:37.793Z,19.65
2019-02-14T16:38:06.661Z,14.63
2019-02-14T16:40:38.633Z,13.98
2019-02-14T16:43:05.148Z,19.75
2019-02-14T16:45:33.504Z,19.10
2019-02-14T16:48:01.882Z,17.02
2019-02-14T16:50:30.672Z,12.68
2019-02-14T16:52:59.021Z,16.05
2019-02-14T16:55:27.806Z,12.80
2019-02-14T16:57:56.362Z,11.57
2019-02-14T17:00:24.824Z,13.80
2019-02-14T17:02:53.534Z,13.08
2019-02-14T17:05:21.909Z,14.83
2019-02-14T17:07:50.280Z,12.45
2019-02-14T17:10:18.678Z,18.73
2019-02-14T17:12:47.341Z,16.80
2019-02-14T17:15:15.712Z,15.60
2019-02-14T17:17:44.163Z,18.48
2019-02-14T17:20:12.532Z,17.00
2019-02-14T17:22:40.936Z,18.82
2019-02-14T17:25:09.599Z,19.57
2019-02-14T17:27:38.656Z,18.55
2019-02-14T17:30:09.911Z,16.62
2019-02-14T17:32:38.272Z,17.12
2019-02-14T17:35:07.684Z,15.90
2019-02-14T17:37:36.066Z,16.27
2019-02-14T17:40:07.614Z,16.20
2019-02-14T17:42:35.967Z,16.52
2019-02-14T17:45:05.631Z,18.90
2019-02-14T17:47:33.997Z,18.15
2019-02-14T17:50:02.375Z,21.57
2019-02-14T17:52:30.778Z,13.55
2019-02-14T17:54:59.152Z,21.90
2019-02-14T17:57:27.548Z,22.52
2019-02-14T17:59:56.678Z,21.42
2019-02-14T18:02:25.734Z,18.35
2019-02-14T18:05:15.167Z,30.57
2019-02-14T18:07:44.433Z,23.25
2019-02-14T18:10:13.650Z,24.87
2019-02-14T18:12:42.579Z,26.17
2019-02-14T18:15:34.679Z,25.05
2019-02-14T18:18:03.711Z,21.60
2019-02-14T18:20:32.082Z,24.25
2019-02-14T18:23:01.012Z,23.12
2019-02-14T18:25:29.376Z,23.47
2019-02-14T18:27:57.802Z,27.15
2019-02-14T18:30:26.875Z,19.75
2019-02-14T18:32:56.874Z,25.62
2019-02-14T18:35:25.579Z,21.75
2019-02-14T18:37:54.207Z,22.55
2019-02-14T18:40:28.668Z,22.37
2019-02-14T18:42:57.567Z,25.02
2019-02-14T18:45:26.739Z,22.30
2019-02-14T18:47:55.124Z,21.93
2019-02-14T18:50:23.771Z,26.35
2019-02-14T18:52:52.547Z,22.73
2019-02-14T18:55:21.790Z,20.37
2019-02-14T18:57:50.143Z,25.65
2019-02-14T19:00:19.747Z,26.30
2019-02-14T19:02:48.133Z,21.40
2019-02-14T19:05:16.525Z,17.00
2019-02-14T19:07:45.041Z,21.17
2019-02-14T19:10:15.567Z,24.87
2019-02-14T19:13:04.979Z,21.33
2019-02-14T19:15:33.389Z,25.85
2019-02-14T19:18:02.323Z,19.05
2019-02-14T19:20:30.774Z,20.20
2019-02-14T19:22:59.137Z,24.57
2019-02-14T19:25:29.642Z,32.70
2019-02-14T19:27:57.554Z,23.92
2019-02-14T19:30:27.364Z,30.52
2019-02-14T19:32:55.727Z,26.73
2019-02-14T19:35:24.230Z,27.05
2019-02-14T19:37:52.606Z,29.45
2019-02-14T19:40:21.104Z,29.45
2019-02-14T19:42:49.738Z,25.30
2019-02-14T19:45:18.624Z,29.27
2019-02-14T19:47:47.009Z,25.40
2019-02-14T19:50:15.480Z,37.42
2019-02-14T19:52:43.828Z,28.38
2019-02-14T19:55:12.224Z,24.23
2019-02-14T19:57:40.599Z,26.12
2019-02-14T20:00:11.807Z,30.27
2019-02-14T20:02:40.479Z,28.65
2019-02-14T20:05:10.028Z,30.02
2019-02-14T20:07:38.489Z,35.33
2019-02-14T20:10:09.661Z,29.82
2019-02-14T20:12:38.057Z,31.80
2019-02-14T20:15:18.968Z,29.70
2019-02-14T20:17:47.381Z,29.87
2019-02-14T20:20:15.734Z,25.23
2019-02-14T20:22:44.171Z,24.80
2019-02-14T20:25:18.949Z,20.57
2019-02-14T20:27:49.990Z,16.82
2019-02-14T20:30:18.264Z,16.93
2019-02-14T20:32:46.660Z,18.02
2019-02-14T20:35:15.100Z,23.25
2019-02-14T20:37:44.148Z,25.40
2019-02-14T20:40:12.867Z,27.50
2019-02-14T20:42:41.242Z,24.55
2019-02-14T20:45:14.111Z,19.17
2019-02-14T20:47:42.460Z,19.95
2019-02-14T20:50:12.487Z,18.73
2019-02-14T20:52:41.426Z,20.27
2019-02-14T20:55:15.913Z,19.32
2019-02-14T20:57:45.131Z,22.75
2019-02-14T21:00:27.153Z,18.52
2019-02-14T21:02:55.612Z,20.27
2019-02-14T21:05:24.061Z,21.23
2019-02-14T21:07:53.264Z,20.72
2019-02-14T21:10:22.007Z,21.85
2019-02-14T21:12:50.399Z,19.67
2019-02-14T21:15:19.075Z,23.70
2019-02-14T21:17:47.480Z,23.90
2019-02-14T21:20:19.422Z,24.52
2019-02-14T21:22:47.871Z,21.75
2019-02-14T21:25:22.091Z,27.40
2019-02-14T21:27:47.169Z,26.10
2019-02-14T21:30:20.471Z,26.80
2019-02-14T21:32:49.657Z,26.75
2019-02-14T21:35:18.022Z,28.02
2019-02-14T21:37:47.125Z,22.22
2019-02-14T21:40:16.724Z,22.93
2019-02-14T21:42:45.123Z,20.45
2019-02-14T21:45:15.535Z,18.02
2019-02-14T21:47:43.933Z,19.20
2019-02-14T21:50:13.437Z,19.82
2019-02-14T21:52:41.886Z,23.05
2019-02-14T21:55:11.692Z,18.32
2019-02-14T21:57:40.181Z,20.17
2019-02-14T22:00:15.343Z,23.90
2019-02-14T22:02:43.864Z,17.25
2019-02-14T22:05:12.323Z,20.48
2019-02-14T22:07:40.739Z,17.85
2019-02-14T22:10:11.426Z,16.17
2019-02-14T22:12:42.213Z,17.30
2019-02-14T22:15:15.983Z,13.48
2019-02-14T22:17:44.462Z,16.95
2019-02-14T22:20:13.414Z,13.28
2019-02-14T22:22:42.379Z,14.28
2019-02-14T22:25:11.290Z,15.30
2019-02-14T22:27:40.316Z,19.50
2019-02-14T22:30:15.466Z,18.25
2019-02-14T22:32:51.068Z,15.32
2019-02-14T22:35:21.387Z,16.90
2019-02-14T22:37:49.755Z,18.42
2019-02-14T22:40:18.931Z,16.95
2019-02-14T22:42:48.263Z,14.65
2019-02-14T22:45:16.632Z,14.85
2019-02-14T22:47:45.002Z,17.45
2019-02-14T22:50:13.760Z,18.70
2019-02-14T22:52:42.386Z,12.58
2019-02-14T22:55:15.221Z,13.75
2019-02-14T22:57:43.623Z,17.48
2019-02-14T23:00:28.615Z,13.40
2019-02-14T23:02:57.079Z,16.70
2019-02-14T23:05:25.781Z,18.35
2019-02-14T23:07:54.187Z,17.23
2019-02-14T23:10:23.667Z,13.05
2019-02-14T23:12:55.760Z,18.52
2019-02-14T23:15:22.111Z,14.93
2019-02-14T23:17:50.467Z,16.80
2019-02-14T23:20:19.222Z,12.47
2019-02-14T23:22:47.909Z,14.10
2019-02-14T23:25:17.101Z,13.13
2019-02-14T23:27:46.171Z,16.95
2019-02-14T23:30:14.563Z,18.75
2019-02-14T23:32:43.056Z,15.50
2019-02-14T23:35:11.415Z,13.60
2019-02-14T23:37:40.735Z,16.20
2019-02-14T23:40:09.143Z,15.45
2019-02-14T23:42:37.512Z,13.30
2019-02-14T23:45:13.502Z,15.35
2019-02-14T23:47:42.231Z,20.95
2019-02-14T23:50:17.833Z,19.15
2019-02-14T23:52:46.195Z,19.07
2019-02-14T23:55:15.237Z,19.98
2019-02-14T23:57:43.641Z,17.60
